Time;durP1;ratioP1;P1;durP2;ratioP2;P2;SDS_P1;SDS_P2;PMS_P1;PMS_P2;Temp;Humidity;BMP_temperature;BMP_pressure;BME280_temperature;BME280_humidity;BME280_pressure;Samples;Min_cycle;Max_cycle;Signal;HPM_P1;HPM_P2
2022/12/10 00:01:16;;;;;;;16.63;7.57;;;;;;;0.65;77.01;99519.06;4997732;28;20226;-64
2022/12/10 00:03:43;;;;;;;15.47;7.83;;;;;;;0.63;76.49;99511.19;4974214;28;20260;-64
2022/12/10 00:06:12;;;;;;;14.50;7.23;;;;;;;0.59;76.68;99511.91;4995280;28;20203;-64
2022/12/10 00:08:39;;;;;;;14.60;7.20;;;;;;;0.79;76.06;99521.34;4991699;28;20254;-63
2022/12/10 00:11:07;;;;;;;13.20;6.43;;;;;;;0.70;76.09;99515.78;4993760;28;20282;-64
2022/12/10 00:13:35;;;;;;;14.30;6.93;;;;;;;0.73;75.96;99522.84;4991321;28;20243;-64
2022/12/10 00:16:04;;;;;;;10.53;5.13;;;;;;;0.71;76.31;99533.22;4990712;28;20285;-63
2022/12/10 00:18:31;;;;;;;13.17;7.00;;;;;;;0.70;76.10;99536.63;4990468;28;20294;-64
2022/12/10 00:20:57;;;;;;;13.73;6.73;;;;;;;0.71;76.44;99538.41;4999663;28;20223;-63
2022/12/10 00:23:24;;;;;;;11.93;5.57;;;;;;;0.65;76.39;99529.47;4990373;28;20253;-64
2022/12/10 00:25:50;;;;;;;13.90;6.80;;;;;;;0.67;76.39;99530.44;4993497;28;20280;-64
2022/12/10 00:28:16;;;;;;;13.80;7.00;;;;;;;0.65;76.76;99529.47;4995227;28;20600;-63
2022/12/10 00:30:43;;;;;;;13.17;6.57;;;;;;;0.60;76.62;99530.19;4993934;28;20194;-64
2022/12/10 00:33:09;;;;;;;13.33;6.97;;;;;;;0.54;76.56;99535.16;4992323;28;20289;-65
2022/12/10 00:35:36;;;;;;;12.97;6.53;;;;;;;0.60;76.76;99534.53;4995749;28;20197;-62
2022/12/10 00:38:03;;;;;;;8.93;4.67;;;;;;;0.57;76.40;99537.91;4991718;28;20705;-63
2022/12/10 00:40:29;;;;;;;13.57;7.03;;;;;;;0.56;77.02;99535.22;4992505;28;20274;-64
2022/12/10 00:42:56;;;;;;;9.30;5.47;;;;;;;0.55;76.97;99534.34;4990551;28;20203;-63
2022/12/10 00:45:22;;;;;;;13.43;7.00;;;;;;;0.49;77.12;99531.50;4991219;28;20487;-64
2022/12/10 00:47:48;;;;;;;9.40;4.80;;;;;;;0.52;77.13;99530.72;4991002;28;20311;-64
2022/12/10 00:50:14;;;;;;;11.93;6.40;;;;;;;0.46;77.30;99531.38;4991625;28;20206;-63
2022/12/10 00:52:41;;;;;;;13.93;6.67;;;;;;;0.46;77.24;99534.00;4990818;28;20206;-63
2022/12/10 00:55:07;;;;;;;12.00;6.53;;;;;;;0.47;76.87;99527.06;4990444;28;20193;-64
2022/12/10 00:57:34;;;;;;;14.70;6.87;;;;;;;0.44;77.11;99530.44;4989901;28;20316;-64
2022/12/10 01:00:00;;;;;;;17.00;7.20;;;;;;;0.38;77.01;99531.88;4999797;28;20307;-63
2022/12/10 01:02:26;;;;;;;16.40;6.23;;;;;;;0.41;77.52;99526.81;4999599;28;20292;-62
2022/12/10 01:04:53;;;;;;;13.93;6.80;;;;;;;0.43;77.59;99536.47;5002803;28;20197;-64
2022/12/10 01:07:20;;;;;;;13.30;6.40;;;;;;;0.42;77.22;99529.50;4990159;28;20299;-64
2022/12/10 01:09:46;;;;;;;12.87;6.63;;;;;;;0.43;77.34;99539.06;4994461;28;22188;-63
2022/12/10 01:12:13;;;;;;;13.57;6.50;;;;;;;0.43;77.14;99525.16;4999826;28;20202;-64
2022/12/10 01:14:39;;;;;;;12.63;6.23;;;;;;;0.44;77.44;99539.97;4995160;28;20225;-64
2022/12/10 01:17:05;;;;;;;14.13;7.80;;;;;;;0.35;77.25;99531.75;4994956;28;20253;-64
2022/12/10 01:19:33;;;;;;;14.90;7.37;;;;;;;0.44;77.77;99538.25;4998335;28;20206;-64
2022/12/10 01:21:59;;;;;;;14.90;7.33;;;;;;;0.41;77.49;99540.72;4996644;28;20294;-64
2022/12/10 01:24:27;;;;;;;16.20;7.83;;;;;;;0.30;77.91;99548.09;4993116;28;20657;-65
2022/12/10 01:26:55;;;;;;;13.37;7.17;;;;;;;0.29;77.78;99550.63;4989464;28;20221;-64
2022/12/10 01:29:22;;;;;;;14.37;7.03;;;;;;;0.36;77.44;99550.06;4996204;28;20194;-63
2022/12/10 01:31:51;;;;;;;12.60;6.50;;;;;;;0.41;77.37;99558.97;4995146;28;20658;-64
2022/12/10 01:34:18;;;;;;;13.67;7.87;;;;;;;0.36;77.25;99547.44;4998237;28;20196;-64
2022/12/10 01:36:48;;;;;;;14.83;7.40;;;;;;;0.36;77.77;99563.06;4989451;28;20613;-64
2022/12/10 01:39:16;;;;;;;12.77;6.93;;;;;;;0.42;77.05;99573.75;4991179;28;20284;-64
2022/12/10 01:41:46;;;;;;;11.73;5.60;;;;;;;0.37;77.04;99563.97;4989512;28;20294;-64
2022/12/10 01:44:12;;;;;;;12.90;5.00;;;;;;;0.37;77.23;99583.06;4989760;28;20228;-63
2022/12/10 01:46:41;;;;;;;17.80;7.23;;;;;;;0.28;77.21;99577.50;4990761;28;20285;-64
2022/12/10 01:49:14;;;;;;;8.27;4.43;;;;;;;0.24;77.65;99578.22;4996537;28;20297;-63
2022/12/10 01:51:43;;;;;;;13.77;6.30;;;;;;;0.16;77.63;99579.63;4988937;28;20279;-65
2022/12/10 01:54:16;;;;;;;12.10;4.97;;;;;;;0.22;77.72;99585.06;4989735;28;20208;-63
2022/12/10 01:56:45;;;;;;;12.77;6.13;;;;;;;0.19;77.78;99588.44;4989371;28;20630;-63
2022/12/10 01:59:15;;;;;;;11.90;6.80;;;;;;;0.18;77.83;99586.66;4989724;28;20251;-64
2022/12/10 02:02:12;;;;;;;12.53;6.73;;;;;;;0.16;78.19;99595.22;4995805;28;20705;-64
2022/12/10 02:04:55;;;;;;;14.03;6.10;;;;;;;0.17;78.03;99590.09;4990582;28;20248;-64
2022/12/10 02:07:39;;;;;;;13.27;6.20;;;;;;;0.16;77.90;99590.03;4999344;28;20637;-64
2022/12/10 02:10:15;;;;;;;15.23;6.93;;;;;;;0.07;78.27;99584.44;4999247;28;20193;-64
2022/12/10 02:13:03;;;;;;;13.47;6.67;;;;;;;0.00;78.80;99575.50;5004240;28;20196;-63
2022/12/10 02:15:34;;;;;;;15.53;7.33;;;;;;;0.04;78.89;99581.72;4998335;28;20288;-64
2022/12/10 02:18:25;;;;;;;13.77;6.37;;;;;;;0.08;78.51;99583.63;4996914;28;20226;-64
2022/12/10 02:20:57;;;;;;;16.77;7.17;;;;;;;0.06;78.90;99585.28;4999658;28;20655;-64
2022/12/10 02:23:25;;;;;;;15.63;7.30;;;;;;;0.02;78.75;99583.38;5000187;28;20295;-64
2022/12/10 02:26:10;;;;;;;12.83;7.20;;;;;;;-0.04;79.13;99590.06;4994911;28;20717;-64
2022/12/10 02:28:47;;;;;;;13.43;7.23;;;;;;;-0.07;78.40;99584.72;4996199;28;20228;-64
2022/12/10 02:31:18;;;;;;;14.60;6.93;;;;;;;-0.16;78.50;99573.94;4993420;28;20286;-63
2022/12/10 02:33:50;;;;;;;15.47;7.07;;;;;;;-0.19;78.55;99573.81;4997269;28;20264;-63
2022/12/10 02:36:20;;;;;;;13.00;6.40;;;;;;;-0.20;79.05;99573.75;4996984;28;20256;-63
2022/12/10 02:38:49;;;;;;;14.43;7.20;;;;;;;-0.38;79.75;99577.34;4996560;28;20702;-64
2022/12/10 02:41:26;;;;;;;14.60;6.97;;;;;;;-0.46;80.59;99576.09;4992636;28;20221;-64
2022/12/10 02:43:56;;;;;;;16.17;6.87;;;;;;;-0.53;80.42;99573.19;4996656;28;20284;-64
2022/12/10 02:46:30;;;;;;;14.20;6.57;;;;;;;-0.59;80.50;99579.00;4993094;28;20288;-63
2022/12/10 02:48:58;;;;;;;14.13;6.53;;;;;;;-0.74;81.19;99581.81;4992808;28;20255;-63
2022/12/10 02:51:24;;;;;;;15.53;6.87;;;;;;;-0.84;81.35;99579.59;4993731;28;20256;-63
2022/12/10 02:54:06;;;;;;;13.57;6.30;;;;;;;-0.83;81.41;99586.56;4993074;28;20681;-65
2022/12/10 02:56:40;;;;;;;13.80;6.97;;;;;;;-0.87;81.61;99588.97;4992137;28;20292;-62
2022/12/10 02:59:14;;;;;;;14.37;6.50;;;;;;;-1.05;82.46;99594.22;4992147;28;20666;-64
2022/12/10 03:01:59;;;;;;;11.83;5.77;;;;;;;-1.13;82.84;99591.28;4999550;28;20310;-64
2022/12/10 03:04:38;;;;;;;12.03;6.23;;;;;;;-1.26;83.42;99588.91;4992260;28;20720;-64
2022/12/10 03:07:31;;;;;;;12.90;6.00;;;;;;;-1.30;83.76;99587.88;4994400;28;20213;-63
2022/12/10 03:10:06;;;;;;;14.70;6.43;;;;;;;-1.23;82.72;99581.25;4993302;28;20196;-65
2022/12/10 03:12:39;;;;;;;13.40;6.43;;;;;;;-1.12;82.45;99584.38;5007909;28;20620;-64
2022/12/10 03:15:09;;;;;;;11.07;5.57;;;;;;;-1.29;82.83;99580.97;5003498;28;20283;-64
2022/12/10 03:17:38;;;;;;;8.00;4.63;;;;;;;-1.20;82.98;99591.81;4989769;28;20601;-64
2022/12/10 03:20:08;;;;;;;13.27;6.03;;;;;;;-1.19;82.79;99584.91;4994062;28;20247;-64
2022/12/10 03:22:39;;;;;;;12.17;6.00;;;;;;;-1.23;82.95;99580.38;5001522;28;20200;-66
2022/12/10 03:25:07;;;;;;;11.63;5.10;;;;;;;-1.16;82.46;99580.75;4991675;28;20263;-64
2022/12/10 03:27:34;;;;;;;6.67;3.30;;;;;;;-1.22;82.62;99577.84;4995136;28;20319;-65
2022/12/10 03:30:01;;;;;;;8.33;4.73;;;;;;;-1.22;82.58;99582.16;4995401;28;20253;-63
2022/12/10 03:32:29;;;;;;;9.93;5.30;;;;;;;-1.21;82.55;99582.22;4994835;28;20343;-64
2022/12/10 03:34:57;;;;;;;10.63;5.33;;;;;;;-1.37;82.96;99572.81;4991979;28;20300;-64
2022/12/10 03:37:26;;;;;;;11.90;5.87;;;;;;;-1.38;83.48;99583.16;4979284;28;20311;-66
2022/12/10 03:39:53;;;;;;;13.60;5.77;;;;;;;-1.39;83.17;99574.47;4994160;28;20208;-65
2022/12/10 03:42:19;;;;;;;11.73;5.60;;;;;;;-1.39;83.00;99583.97;4993670;28;20221;-66
2022/12/10 03:44:51;;;;;;;10.20;5.10;;;;;;;-1.44;83.01;99575.06;4992786;28;20270;-64
2022/12/10 03:47:19;;;;;;;14.33;6.30;;;;;;;-1.53;83.56;99585.91;4991403;28;20303;-65
2022/12/10 03:49:45;;;;;;;15.27;6.23;;;;;;;-1.61;84.07;99592.41;4999429;28;20283;-66
2022/12/10 03:52:12;;;;;;;15.73;8.40;;;;;;;-1.61;84.41;99590.72;4974814;28;20192;-65
2022/12/10 03:54:39;;;;;;;9.70;4.70;;;;;;;-1.58;84.59;99602.97;4979771;28;20731;-65
2022/12/10 03:57:05;;;;;;;12.27;5.77;;;;;;;-1.64;84.17;99598.34;4992285;28;20697;-64
2022/12/10 03:59:32;;;;;;;14.10;6.77;;;;;;;-1.71;84.73;99593.69;4991338;28;20213;-66
2022/12/10 04:01:58;;;;;;;14.90;8.23;;;;;;;-1.77;84.73;99595.97;4991096;28;20803;-67
2022/12/10 04:04:24;;;;;;;14.83;7.40;;;;;;;-1.76;84.90;99595.16;4997404;28;20278;-65
2022/12/10 04:06:51;;;;;;;13.23;5.60;;;;;;;-1.67;84.49;99610.28;5001543;28;20231;-65
2022/12/10 04:09:17;;;;;;;11.37;5.80;;;;;;;-1.75;84.29;99603.84;5008955;28;20283;-65
2022/12/10 04:11:44;;;;;;;13.37;6.20;;;;;;;-1.61;84.09;99600.19;4992870;28;20670;-66
2022/12/10 04:16:56;;;;;;;12.93;8.07;;;;;;;-1.63;83.79;99591.44;5003781;28;20268;-66
2022/12/10 04:19:23;;;;;;;11.00;5.40;;;;;;;-1.62;83.67;99606.22;4990996;28;20197;-63
2022/12/10 04:27:27;;;;;;;8.67;4.23;;;;;;;-1.61;83.23;99601.09;4993487;28;20224;-65
2022/12/10 04:29:54;;;;;;;16.03;8.17;;;;;;;-1.66;83.68;99602.59;4983023;28;20287;-65
2022/12/10 04:32:22;;;;;;;10.73;5.30;;;;;;;-1.73;83.63;99594.44;4995735;28;20252;-65
2022/12/10 04:34:48;;;;;;;10.40;5.07;;;;;;;-1.67;83.74;99600.78;4999302;28;20274;-67
2022/12/10 04:37:15;;;;;;;10.37;5.43;;;;;;;-1.73;84.05;99608.28;4993717;28;20271;-67
2022/12/10 04:39:42;;;;;;;12.80;6.17;;;;;;;-1.77;84.25;99602.88;4992970;28;20197;-67
2022/12/10 04:42:08;;;;;;;11.50;5.60;;;;;;;-1.81;84.35;99604.44;4994439;28;20224;-66
2022/12/10 04:44:35;;;;;;;12.60;6.13;;;;;;;-1.93;84.44;99602.13;4993332;28;20681;-65
2022/12/10 04:47:04;;;;;;;11.63;5.47;;;;;;;-1.87;84.62;99606.72;4990024;28;20228;-65
2022/12/10 04:49:30;;;;;;;10.63;5.40;;;;;;;-1.80;84.38;99607.91;4990467;28;20292;-65
2022/12/10 04:51:56;;;;;;;11.10;5.13;;;;;;;-1.78;84.33;99598.50;4997031;28;20494;-65
2022/12/10 04:54:23;;;;;;;9.87;5.23;;;;;;;-1.75;84.06;99598.66;4990199;28;20201;-66
2022/12/10 04:56:50;;;;;;;14.53;8.07;;;;;;;-1.85;84.29;99596.44;4994686;28;20283;-65
2022/12/10 04:59:16;;;;;;;13.73;7.90;;;;;;;-1.85;84.77;99596.44;4990352;28;20251;-65
2022/12/10 05:01:43;;;;;;;11.13;6.27;;;;;;;-1.96;84.97;99595.91;4992716;28;20494;-65
2022/12/10 05:04:12;;;;;;;11.17;5.67;;;;;;;-2.15;85.40;99601.84;4989991;28;20680;-66
2022/12/10 05:06:39;;;;;;;16.07;6.37;;;;;;;-2.35;86.06;99597.38;4992578;28;20440;-65
2022/12/10 05:09:06;;;;;;;15.63;6.83;;;;;;;-2.54;86.79;99608.47;4974916;28;20332;-66
2022/12/10 05:11:34;;;;;;;14.33;6.07;;;;;;;-2.79;87.41;99595.94;4990174;28;20280;-65
2022/12/10 05:14:00;;;;;;;14.77;6.60;;;;;;;-2.86;87.76;99622.31;4992847;28;20228;-66
2022/12/10 05:16:30;;;;;;;12.67;6.10;;;;;;;-2.91;88.58;99618.59;4990630;28;20235;-65
2022/12/10 05:18:57;;;;;;;10.50;6.13;;;;;;;-2.86;88.93;99623.19;4988142;23;20320;-68
2022/12/10 05:23:27;;;;;;;14.97;6.57;;;;;;;-2.82;89.20;99624.25;4954495;28;20221;-68
2022/12/10 05:24:17;;;;;;;13.47;6.27;;;;;;;-2.94;89.42;99621.00;4954013;28;20712;-67
2022/12/10 05:26:44;;;;;;;15.13;7.03;;;;;;;-3.00;89.57;99625.88;4954144;28;20623;-68
2022/12/10 05:29:12;;;;;;;12.87;6.50;;;;;;;-2.84;89.75;99631.06;4963908;28;20746;-68
2022/12/10 05:31:38;;;;;;;15.23;9.00;;;;;;;-3.01;89.67;99630.16;4969570;28;20225;-70
2022/12/10 05:34:04;;;;;;;12.40;5.83;;;;;;;-3.18;89.62;99628.38;4970180;28;20288;-68
2022/12/10 05:36:31;;;;;;;13.77;6.67;;;;;;;-3.31;89.60;99636.22;4938753;28;20229;-69
2022/12/10 05:38:58;;;;;;;12.30;6.40;;;;;;;-3.49;89.75;99634.41;4970043;28;20232;-67
2022/12/10 05:41:28;;;;;;;15.13;6.73;;;;;;;-3.64;90.26;99630.03;4973912;28;20225;-69
2022/12/10 05:43:55;;;;;;;15.20;6.77;;;;;;;-3.67;90.53;99640.22;4973786;28;20236;-68
2022/12/10 05:46:28;;;;;;;17.63;9.43;;;;;;;-3.69;91.19;99647.91;4973432;28;20483;-68
2022/12/10 05:48:55;;;;;;;14.90;7.07;;;;;;;-3.70;91.35;99653.88;4973520;28;20225;-67
2022/12/10 05:51:27;;;;;;;11.87;6.73;;;;;;;-3.73;91.53;99655.41;4974219;28;20507;-68
2022/12/10 05:53:54;;;;;;;11.70;6.70;;;;;;;-3.80;91.71;99649.88;4973734;28;20502;-68
2022/12/10 05:56:22;;;;;;;14.47;7.00;;;;;;;-3.69;92.37;99655.66;4973163;28;20280;-68
2022/12/10 05:58:50;;;;;;;15.17;7.17;;;;;;;-3.65;92.77;99660.19;4973244;28;20304;-68
2022/12/10 06:01:19;;;;;;;12.53;6.40;;;;;;;-3.72;92.37;99660.66;4974050;28;20268;-68
2022/12/10 06:03:46;;;;;;;16.37;6.47;;;;;;;-3.74;92.34;99664.84;4972450;28;20480;-68
2022/12/10 06:06:13;;;;;;;17.40;9.97;;;;;;;-3.71;92.50;99661.56;4967752;28;20449;-68
2022/12/10 06:08:40;;;;;;;15.63;7.13;;;;;;;-3.62;93.08;99662.97;4973518;28;20221;-68
2022/12/10 06:11:10;;;;;;;13.67;6.73;;;;;;;-3.53;92.95;99665.22;4972850;28;20440;-67
2022/12/10 06:13:37;;;;;;;12.00;5.90;;;;;;;-2.92;91.85;99663.44;4968132;28;20209;-68
2022/12/10 06:16:09;;;;;;;18.77;10.33;;;;;;;-2.94;91.73;99665.94;4956030;28;20987;-68
2022/12/10 06:18:36;;;;;;;20.03;10.67;;;;;;;-2.59;90.18;99667.84;4973487;28;20546;-67
2022/12/10 06:21:08;;;;;;;18.10;9.67;;;;;;;-2.60;89.83;99657.41;4971078;28;20899;-67
2022/12/10 06:23:35;;;;;;;15.57;6.53;;;;;;;-2.53;89.77;99664.69;4972539;28;20201;-68
2022/12/10 06:26:13;;;;;;;12.73;6.47;;;;;;;-2.56;89.31;99664.53;4972950;28;20301;-69
2022/12/10 06:28:44;;;;;;;12.93;6.50;;;;;;;-2.77;89.49;99668.56;4973063;28;20527;-68
2022/12/10 06:31:10;;;;;;;15.47;7.53;;;;;;;-2.78;89.44;99662.50;4971561;28;20452;-68
2022/12/10 06:33:37;;;;;;;14.67;6.87;;;;;;;-2.79;89.56;99670.19;4973869;28;20285;-68
2022/12/10 06:36:08;;;;;;;14.80;6.53;;;;;;;-2.87;89.77;99670.63;4973101;28;20879;-68
2022/12/10 06:38:38;;;;;;;14.33;6.87;;;;;;;-3.05;89.92;99664.47;4970265;28;20477;-68
2022/12/10 06:41:06;;;;;;;16.67;6.90;;;;;;;-3.16;90.00;99674.25;4972211;28;20529;-68
2022/12/10 06:43:33;;;;;;;14.13;5.47;;;;;;;-2.98;90.19;99673.47;4973423;28;20500;-68
2022/12/10 06:46:04;;;;;;;14.77;6.53;;;;;;;-2.99;90.10;99671.69;4972925;28;20879;-68
2022/12/10 06:48:30;;;;;;;12.80;6.23;;;;;;;-3.01;90.29;99681.97;4966532;28;20547;-68
2022/12/10 06:50:57;;;;;;;12.23;6.27;;;;;;;-2.65;89.36;99688.25;4972403;28;20310;-68
2022/12/10 06:53:23;;;;;;;14.97;7.07;;;;;;;-2.62;89.32;99685.81;4972604;28;20528;-68
2022/12/10 06:55:50;;;;;;;13.63;6.37;;;;;;;-2.39;88.21;99686.19;4970027;28;20537;-68
2022/12/10 06:58:16;;;;;;;16.43;6.97;;;;;;;-2.48;88.32;99690.84;4972279;28;20558;-68
2022/12/10 07:00:42;;;;;;;14.97;6.53;;;;;;;-2.46;88.21;99695.31;4972543;28;20441;-68
2022/12/10 07:03:09;;;;;;;13.20;6.27;;;;;;;-2.52;88.24;99690.69;4972413;28;20217;-69
2022/12/10 07:05:35;;;;;;;11.77;6.03;;;;;;;-2.32;87.38;99696.94;4971260;28;20201;-69
2022/12/10 07:08:01;;;;;;;17.73;9.90;;;;;;;-2.31;87.49;99700.44;4972102;28;20461;-67
2022/12/10 07:10:28;;;;;;;16.93;9.47;;;;;;;-2.15;87.06;99699.53;4972631;28;20449;-69
2022/12/10 07:12:54;;;;;;;15.17;6.67;;;;;;;-2.16;87.29;99695.16;4972430;28;20524;-68
2022/12/10 07:15:22;;;;;;;11.10;6.10;;;;;;;-2.25;87.46;99692.97;4970409;28;20198;-69
2022/12/10 07:17:50;;;;;;;14.33;6.10;;;;;;;-2.30;87.83;99704.81;4971977;28;20229;-68
2022/12/10 07:20:17;;;;;;;15.67;6.87;;;;;;;-2.25;87.85;99709.41;4971439;28;20286;-68
2022/12/10 07:22:43;;;;;;;12.63;6.50;;;;;;;-2.33;88.36;99707.25;4972257;28;20711;-68
2022/12/10 07:25:09;;;;;;;14.77;6.90;;;;;;;-2.38;88.24;99695.75;4970823;28;20206;-68
2022/12/10 07:27:36;;;;;;;13.23;6.67;;;;;;;-2.35;88.64;99706.28;4971746;28;20317;-68
2022/12/10 07:30:03;;;;;;;13.37;6.20;;;;;;;-2.34;89.10;99714.13;4972223;28;20194;-68
2022/12/10 07:32:29;;;;;;;11.93;6.17;;;;;;;-2.19;88.73;99719.22;4970413;28;20252;-69
2022/12/10 07:34:55;;;;;;;13.60;6.63;;;;;;;-2.20;88.76;99717.44;4971474;28;20237;-68
2022/12/10 07:37:22;;;;;;;15.53;7.23;;;;;;;-2.10;88.50;99717.09;4971551;28;20217;-69
2022/12/10 07:39:48;;;;;;;12.80;6.80;;;;;;;-2.01;88.32;99719.28;4971618;28;20342;-68
2022/12/10 07:42:14;;;;;;;13.70;6.47;;;;;;;-1.94;88.48;99729.19;4965034;28;20268;-69
2022/12/10 07:44:43;;;;;;;12.33;6.13;;;;;;;-1.85;88.31;99734.84;4971565;28;20209;-69
2022/12/10 07:47:14;;;;;;;12.43;6.67;;;;;;;-1.76;87.97;99719.75;4965767;28;20337;-68
2022/12/10 07:49:41;;;;;;;12.30;7.00;;;;;;;-1.63;87.89;99727.31;4970633;28;20206;-67
2022/12/10 07:52:08;;;;;;;14.00;7.50;;;;;;;-1.48;87.33;99721.13;4971916;28;20245;-67
2022/12/10 07:54:34;;;;;;;13.77;7.43;;;;;;;-1.36;86.77;99721.75;4971434;28;20414;-68
2022/12/10 07:57:00;;;;;;;14.63;7.17;;;;;;;-1.30;86.20;99712.53;4971615;28;20253;-73
2022/12/10 07:59:27;;;;;;;15.77;7.53;;;;;;;-1.13;86.20;99725.47;4953553;28;20234;-70
2022/12/10 08:01:53;;;;;;;15.00;7.27;;;;;;;-1.02;85.83;99729.47;4953781;28;20218;-68
2022/12/10 08:04:19;;;;;;;14.37;7.37;;;;;;;-0.92;85.81;99728.22;4971707;28;20300;-68
2022/12/10 08:06:47;;;;;;;14.50;7.83;;;;;;;-0.79;85.30;99728.88;4967924;28;20211;-67
2022/12/10 08:09:13;;;;;;;17.27;7.43;;;;;;;-0.66;85.01;99736.44;4971309;28;20311;-68
2022/12/10 08:11:40;;;;;;;14.97;8.17;;;;;;;-0.54;83.55;99732.63;4972363;28;20284;-67
2022/12/10 08:14:06;;;;;;;13.47;8.10;;;;;;;-0.51;82.43;99737.97;4965225;28;20251;-67
2022/12/10 08:16:32;;;;;;;17.87;8.73;;;;;;;-0.39;81.81;99748.94;4967384;28;20286;-67
2022/12/10 08:19:01;;;;;;;14.37;7.70;;;;;;;-0.30;82.06;99740.69;4968702;28;20659;-68
2022/12/10 08:21:30;;;;;;;15.37;8.03;;;;;;;-0.14;80.52;99743.13;4971336;28;20213;-67
2022/12/10 08:23:57;;;;;;;16.43;8.30;;;;;;;-0.05;80.74;99746.16;4967363;28;20264;-67
2022/12/10 08:26:26;;;;;;;15.23;7.73;;;;;;;-0.02;80.55;99741.97;4971074;28;20657;-68
2022/12/10 08:28:53;;;;;;;14.00;7.30;;;;;;;0.10;79.71;99731.22;4970331;28;20861;-66
2022/12/10 08:31:21;;;;;;;14.73;7.47;;;;;;;0.28;78.02;99734.63;4971029;28;20301;-67
2022/12/10 08:33:48;;;;;;;15.03;7.77;;;;;;;0.38;78.60;99740.22;4956416;28;20263;-67
2022/12/10 08:36:16;;;;;;;14.77;7.90;;;;;;;0.45;77.49;99744.91;4970550;28;20242;-66
2022/12/10 08:38:44;;;;;;;15.90;7.90;;;;;;;0.51;77.35;99750.38;4970275;28;20673;-67
2022/12/10 08:41:16;;;;;;;17.23;7.80;;;;;;;0.57;76.90;99746.31;4970169;28;20241;-66
2022/12/10 08:43:43;;;;;;;13.00;7.30;;;;;;;0.68;76.47;99748.47;4969642;28;20724;-68
2022/12/10 08:46:10;;;;;;;14.57;7.50;;;;;;;0.75;76.21;99745.28;4953382;28;20199;-67
2022/12/10 08:48:37;;;;;;;12.83;7.57;;;;;;;0.69;76.41;99751.13;4970147;28;20221;-67
2022/12/10 08:51:05;;;;;;;13.43;7.20;;;;;;;0.89;75.51;99754.59;4966761;28;20270;-67
2022/12/10 08:53:32;;;;;;;14.93;8.57;;;;;;;0.85;75.01;99765.72;4966507;28;20204;-67
2022/12/10 08:55:59;;;;;;;14.57;7.60;;;;;;;0.98;75.91;99772.31;4970274;28;20280;-67
2022/12/10 08:58:25;;;;;;;15.73;8.30;;;;;;;0.90;75.58;99770.28;4969854;28;20280;-68
2022/12/10 09:00:52;;;;;;;12.93;6.93;;;;;;;0.99;74.31;99767.16;4969469;28;20201;-67
2022/12/10 09:03:18;;;;;;;12.33;6.57;;;;;;;1.06;73.93;99779.63;4968219;28;20227;-68
2022/12/10 09:05:45;;;;;;;14.97;7.87;;;;;;;1.01;74.61;99769.81;4970110;28;20283;-66
2022/12/10 09:08:11;;;;;;;14.00;7.67;;;;;;;1.04;74.56;99778.66;4952700;28;20302;-67
2022/12/10 09:10:39;;;;;;;12.43;6.53;;;;;;;0.88;74.41;99782.38;4967753;28;20497;-67
2022/12/10 09:13:06;;;;;;;11.73;6.60;;;;;;;0.86;74.72;99788.34;4970382;28;20245;-67
2022/12/10 09:15:32;;;;;;;15.63;8.00;;;;;;;0.74;75.27;99764.34;4970006;28;20242;-67
2022/12/10 09:17:58;;;;;;;12.80;7.30;;;;;;;0.74;75.97;99793.00;4967474;28;20239;-69
2022/12/10 09:20:25;;;;;;;12.27;6.93;;;;;;;0.65;75.06;99790.91;4967396;28;20241;-67
2022/12/10 09:22:51;;;;;;;13.07;7.33;;;;;;;0.60;75.33;99797.66;4969779;28;20623;-68
2022/12/10 09:25:21;;;;;;;12.63;6.70;;;;;;;0.41;76.03;99790.75;4970344;28;20254;-67
2022/12/10 09:27:48;;;;;;;12.63;7.10;;;;;;;0.33;76.86;99802.53;4945704;28;20593;-68
2022/12/10 09:30:15;;;;;;;15.73;6.70;;;;;;;0.27;77.30;99799.66;4970191;28;20196;-68
2022/12/10 09:32:41;;;;;;;14.13;7.30;;;;;;;0.15;77.16;99796.50;4970191;28;20273;-69
2022/12/10 09:35:07;;;;;;;11.47;6.40;;;;;;;0.14;77.98;99798.22;4969828;28;20200;-69
2022/12/10 09:37:34;;;;;;;11.60;6.23;;;;;;;0.03;78.40;99799.47;4968504;28;20288;-68
2022/12/10 09:40:00;;;;;;;12.53;6.53;;;;;;;0.03;78.35;99801.19;4970345;28;20199;-66
2022/12/10 09:42:47;;;;;;;10.10;6.13;;;;;;;0.13;77.89;99803.38;4970508;28;20231;-67
2022/12/10 09:45:24;;;;;;;14.27;7.17;;;;;;;0.04;77.94;99803.84;4969419;28;20747;-70
2022/12/10 09:48:02;;;;;;;13.63;6.67;;;;;;;-0.01;78.11;99794.91;4968529;28;20224;-68
2022/12/10 09:50:33;;;;;;;15.00;7.57;;;;;;;-0.02;78.33;99798.34;4966474;28;20233;-68
2022/12/10 09:53:02;;;;;;;11.97;7.27;;;;;;;-0.09;78.70;99798.88;4969226;28;20738;-69
2022/12/10 09:55:42;;;;;;;13.47;7.13;;;;;;;-0.09;78.70;99788.47;4970508;28;20199;-68
2022/12/10 09:58:16;;;;;;;12.27;7.00;;;;;;;-0.15;78.29;99776.06;4968456;28;20222;-70
2022/12/10 10:00:45;;;;;;;12.93;7.13;;;;;;;-0.08;78.95;99787.66;4969750;28;20201;-69
2022/12/10 10:03:14;;;;;;;13.17;7.40;;;;;;;0.03;78.57;99773.44;4969116;28;20260;-69
2022/12/10 10:05:45;;;;;;;13.70;6.57;;;;;;;0.02;78.88;99778.56;4969808;28;20208;-69
2022/12/10 10:08:21;;;;;;;15.07;7.37;;;;;;;0.04;78.84;99775.22;4968402;28;20282;-69
2022/12/10 10:10:48;;;;;;;11.63;6.17;;;;;;;0.17;77.84;99776.66;4966821;28;20391;-68
2022/12/10 10:13:29;;;;;;;13.37;6.93;;;;;;;0.17;77.79;99777.53;4969639;28;20604;-69
2022/12/10 10:15:55;;;;;;;10.87;5.97;;;;;;;0.24;78.04;99784.78;4970029;28;20292;-67
2022/12/10 10:18:21;;;;;;;9.03;5.60;;;;;;;0.51;77.28;99795.53;4969424;28;20277;-70
2022/12/10 10:20:48;;;;;;;9.10;4.87;;;;;;;0.83;74.76;99791.72;4963470;28;20292;-70
2022/12/10 10:23:15;;;;;;;14.13;6.10;;;;;;;0.92;74.32;99792.09;4968669;28;20278;-69
2022/12/10 10:25:44;;;;;;;11.03;5.50;;;;;;;0.98;74.09;99786.25;4970953;28;20270;-69
2022/12/10 10:28:13;;;;;;;9.17;5.03;;;;;;;0.97;73.05;99781.84;4956014;28;20247;-69
2022/12/10 10:30:44;;;;;;;9.77;5.50;;;;;;;1.03;73.06;99789.91;4971582;28;20295;-70
2022/12/10 10:33:12;;;;;;;9.57;5.17;;;;;;;0.97;73.09;99797.50;4972885;28;20205;-69
2022/12/10 10:35:46;;;;;;;8.57;5.20;;;;;;;0.94;72.84;99794.75;4973154;28;20243;-69
2022/12/10 10:38:23;;;;;;;9.77;5.20;;;;;;;0.97;72.48;99791.38;4972264;28;20261;-70
2022/12/10 10:40:52;;;;;;;12.30;5.13;;;;;;;1.21;72.10;99792.41;4972681;28;20887;-70
2022/12/10 10:43:23;;;;;;;9.00;4.97;;;;;;;1.41;71.17;99794.09;4972915;28;20237;-70
2022/12/10 10:45:54;;;;;;;8.83;5.17;;;;;;;1.67;70.10;99795.13;4970984;28;20229;-69
2022/12/10 10:48:23;;;;;;;9.67;5.33;;;;;;;1.89;68.89;99782.06;4972057;28;20217;-69
2022/12/10 10:51:12;;;;;;;11.17;5.80;;;;;;;2.09;67.96;99785.44;4973051;28;20264;-69
2022/12/10 10:53:38;;;;;;;8.83;5.23;;;;;;;2.35;67.08;99794.19;4967608;28;20201;-69
2022/12/10 10:56:08;;;;;;;10.23;4.20;;;;;;;2.32;65.91;99798.41;4972512;28;20669;-69
2022/12/10 10:58:36;;;;;;;9.40;4.60;;;;;;;2.20;65.94;99784.09;4969644;28;20300;-69
2022/12/10 11:01:07;;;;;;;7.80;4.40;;;;;;;2.22;66.78;99788.47;4973469;28;20285;-69
2022/12/10 11:03:36;;;;;;;7.90;4.53;;;;;;;2.10;66.49;99776.75;4971812;28;20263;-68
2022/12/10 11:06:07;;;;;;;7.57;4.87;;;;;;;2.17;66.77;99783.09;4972527;28;20197;-68
2022/12/10 11:08:37;;;;;;;6.77;3.37;;;;;;;2.41;65.97;99783.09;4972828;28;20221;-68
2022/12/10 11:11:25;;;;;;;6.07;3.43;;;;;;;2.14;66.65;99782.97;4972744;28;20229;-67
2022/12/10 11:13:51;;;;;;;7.37;4.10;;;;;;;2.26;66.98;99787.75;4967471;28;20205;-67
2022/12/10 11:16:22;;;;;;;9.13;4.60;;;;;;;2.43;66.19;99777.09;4971847;28;20200;-67
2022/12/10 11:19:04;;;;;;;7.70;3.93;;;;;;;2.24;66.61;99765.91;4999707;23;20703;-65
2022/12/10 11:21:32;;;;;;;7.77;4.10;;;;;;;2.11;66.80;99769.81;4977747;28;20671;-65
2022/12/10 11:24:03;;;;;;;8.10;4.23;;;;;;;2.08;67.08;99770.59;4979458;28;20293;-65
2022/12/10 11:26:52;;;;;;;7.87;4.07;;;;;;;1.99;67.01;99778.06;4978504;28;20288;-64
2022/12/10 11:29:46;;;;;;;7.03;4.40;;;;;;;1.96;67.77;99779.66;4986690;28;20311;-64
2022/12/10 11:32:21;;;;;;;7.13;4.33;;;;;;;1.92;67.74;99777.78;4989166;28;20212;-65
2022/12/10 11:35:00;;;;;;;7.53;4.20;;;;;;;1.99;67.37;99785.88;4989821;28;20200;-64
2022/12/10 11:37:52;;;;;;;7.33;4.00;;;;;;;1.95;67.14;99790.94;4984657;28;20239;-62
2022/12/10 11:40:18;;;;;;;8.00;4.33;;;;;;;1.92;67.46;99785.59;4989811;28;20204;-65
2022/12/10 11:43:14;;;;;;;7.57;4.57;;;;;;;2.03;67.12;99781.69;4991196;28;20252;-65
2022/12/10 11:46:16;;;;;;;8.57;4.47;;;;;;;1.94;66.77;99779.59;4987686;28;20243;-64
2022/12/10 11:48:56;;;;;;;7.57;3.90;;;;;;;2.05;66.77;99766.97;4989236;28;20216;-64